Terminal Aerodrome Forecast
Issued by NWS Bismarck, ND

Home | Current Version | Previous Version | Graphics & Text | Print | Product List | Glossary Off
Versions: 1 2 3 4 5 6 7 8 9 10 11 12 13 14 15 16 17 18 19 20

000
FTUS43 KBIS 270523
TAFBIS
TAF
KBIS 270523Z 2706/2806 16007KT P6SM FEW140 FEW200 WS020/18040KT
     FM271200 15011G19KT P6SM SCT150 WS020/18045KT
     FM271400 16014G23KT P6SM SCT150
     FM280200 19007KT P6SM TSRA BKN080CB
     FM280500 30009KT P6SM -SHRA VCTS SCT025 BKN080CB=

USA.gov is the U.S. government's official web portal to all federal, state and local government web resources and services.